Time;durP1;ratioP1;P1;durP2;ratioP2;P2;SDS_P1;SDS_P2;PMS_P1;PMS_P2;Temp;Humidity;BMP_temperature;BMP_pressure;BME280_temperature;BME280_humidity;BME280_pressure;Samples;Min_cycle;Max_cycle;Signal;HPM_P1;HPM_P2
2023/09/09 00:01:29;;;;;;;241.67;93.40;;;;;;;;;;5000457;28;20423;-46
2023/09/09 00:03:56;;;;;;;239.83;94.53;;;;;;;;;;5000343;28;20773;-47
2023/09/09 00:06:21;;;;;;;239.40;93.70;;;;;;;;;;5002108;28;20959;-46
2023/09/09 00:08:47;;;;;;;240.70;94.40;;;;;;;;;;5003526;28;20395;-47
2023/09/09 00:11:13;;;;;;;240.23;95.07;;;;;;;;;;5002248;28;20807;-47
2023/09/09 00:13:39;;;;;;;244.70;98.20;;;;;;;;;;4999729;28;20434;-46
2023/09/09 00:16:05;;;;;;;240.47;95.73;;;;;;;;;;5005380;28;20423;-46
2023/09/09 00:18:31;;;;;;;242.83;97.77;;;;;;;;;;4999286;28;20780;-46
2023/09/09 00:20:57;;;;;;;244.27;102.20;;;;;;;;;;4998565;28;20444;-47
2023/09/09 00:23:23;;;;;;;244.10;98.63;;;;;;;;;;5004377;28;20435;-46
2023/09/09 00:25:50;;;;;;;238.17;93.87;;;;;;;;;;5003790;28;20513;-46
2023/09/09 00:28:16;;;;;;;243.53;98.87;;;;;;;;;;5004879;28;20463;-45
2023/09/09 00:30:42;;;;;;;239.27;95.90;;;;;;;;;;5007677;28;20416;-46
2023/09/09 00:33:09;;;;;;;242.43;97.27;;;;;;;;;;5007219;28;20434;-47
2023/09/09 00:35:37;;;;;;;243.67;98.13;;;;;;;;;;5001689;28;20411;-46
2023/09/09 00:38:03;;;;;;;243.43;98.50;;;;;;;;;;5000284;28;20864;-46
2023/09/09 00:40:29;;;;;;;243.47;96.73;;;;;;;;;;5006537;28;20445;-46
2023/09/09 00:42:55;;;;;;;244.50;101.83;;;;;;;;;;4993935;28;20489;-46
2023/09/09 00:45:21;;;;;;;242.07;96.27;;;;;;;;;;5005383;28;20467;-46
2023/09/09 00:47:47;;;;;;;240.97;96.13;;;;;;;;;;5005182;28;20420;-46
2023/09/09 00:50:13;;;;;;;240.43;94.77;;;;;;;;;;5005703;28;20411;-47
2023/09/09 00:52:40;;;;;;;243.80;98.83;;;;;;;;;;5000431;28;20558;-46
2023/09/09 00:55:07;;;;;;;241.13;94.70;;;;;;;;;;5006373;28;20403;-47
2023/09/09 00:57:33;;;;;;;242.97;97.20;;;;;;;;;;5004506;28;20418;-46
2023/09/09 01:00:02;;;;;;;243.47;100.33;;;;;;;;;;5003606;28;20415;-46
2023/09/09 01:02:28;;;;;;;240.40;94.20;;;;;;;;;;5004749;28;20418;-47
2023/09/09 01:04:54;;;;;;;242.07;95.43;;;;;;;;;;5002508;28;20478;-46
2023/09/09 01:07:20;;;;;;;240.53;95.57;;;;;;;;;;5003944;28;20498;-46
2023/09/09 01:09:46;;;;;;;240.83;98.80;;;;;;;;;;5002773;28;20467;-47
2023/09/09 01:12:12;;;;;;;243.07;98.43;;;;;;;;;;5008561;28;20830;-45
2023/09/09 01:14:39;;;;;;;251.37;108.03;;;;;;;;;;4998522;28;20445;-45
2023/09/09 01:17:05;;;;;;;242.17;98.93;;;;;;;;;;4992602;28;20493;-45
2023/09/09 01:19:32;;;;;;;242.47;99.70;;;;;;;;;;4994792;28;20885;-47
2023/09/09 01:22:03;;;;;;;241.30;97.57;;;;;;;;;;5003601;28;20493;-46
2023/09/09 01:24:29;;;;;;;246.70;102.23;;;;;;;;;;4998047;28;20437;-45
2023/09/09 01:26:56;;;;;;;240.80;95.73;;;;;;;;;;4998884;28;20555;-45
2023/09/09 01:29:22;;;;;;;247.07;104.23;;;;;;;;;;5007953;28;20445;-46
2023/09/09 01:31:48;;;;;;;245.07;98.43;;;;;;;;;;5003708;28;20891;-47
2023/09/09 01:34:14;;;;;;;242.13;95.33;;;;;;;;;;4991873;28;20408;-45
2023/09/09 01:36:40;;;;;;;243.53;98.43;;;;;;;;;;5001817;28;20442;-45
2023/09/09 01:39:06;;;;;;;243.20;98.27;;;;;;;;;;5002247;28;20906;-47
2023/09/09 01:41:32;;;;;;;241.90;95.50;;;;;;;;;;5005796;28;20407;-46
2023/09/09 01:43:58;;;;;;;240.07;94.40;;;;;;;;;;5004038;28;20970;-46
2023/09/09 01:46:24;;;;;;;241.73;97.00;;;;;;;;;;5005996;28;20540;-46
2023/09/09 01:48:50;;;;;;;240.93;95.37;;;;;;;;;;5002438;28;20419;-46
2023/09/09 01:51:16;;;;;;;244.87;102.60;;;;;;;;;;4998071;28;20749;-45
2023/09/09 01:53:42;;;;;;;242.43;94.73;;;;;;;;;;5005077;28;20866;-46
2023/09/09 01:56:08;;;;;;;242.13;96.77;;;;;;;;;;5002869;28;20795;-47
2023/09/09 01:58:34;;;;;;;243.77;96.93;;;;;;;;;;5005399;28;20413;-46
2023/09/09 02:00:59;;;;;;;241.67;95.43;;;;;;;;;;4997893;28;20454;-45
2023/09/09 02:03:26;;;;;;;238.90;92.67;;;;;;;;;;5003881;28;20490;-46
2023/09/09 02:05:51;;;;;;;242.37;98.10;;;;;;;;;;5000657;28;20973;-46
2023/09/09 02:08:18;;;;;;;244.20;102.33;;;;;;;;;;5003448;28;20439;-46
2023/09/09 02:10:44;;;;;;;240.93;96.80;;;;;;;;;;5004499;28;20422;-47
2023/09/09 02:13:10;;;;;;;242.93;100.40;;;;;;;;;;5000661;28;20440;-45
2023/09/09 02:15:36;;;;;;;242.47;97.37;;;;;;;;;;5003146;28;20450;-46
2023/09/09 02:18:02;;;;;;;243.13;97.30;;;;;;;;;;5001683;28;20415;-45
2023/09/09 02:20:28;;;;;;;240.30;93.37;;;;;;;;;;5002297;28;20790;-47
2023/09/09 02:22:54;;;;;;;245.33;100.20;;;;;;;;;;5001153;28;20467;-46
2023/09/09 02:25:20;;;;;;;244.47;99.10;;;;;;;;;;5007187;28;20556;-46
2023/09/09 02:27:46;;;;;;;241.43;96.07;;;;;;;;;;5003031;28;20411;-47
2023/09/09 02:30:12;;;;;;;241.33;94.30;;;;;;;;;;4999116;28;20747;-45
2023/09/09 02:32:38;;;;;;;243.33;97.00;;;;;;;;;;5000915;28;20424;-45
2023/09/09 02:35:07;;;;;;;242.67;95.63;;;;;;;;;;5001320;28;20400;-46
2023/09/09 02:37:34;;;;;;;241.63;95.53;;;;;;;;;;5004655;28;20403;-45
2023/09/09 02:40:00;;;;;;;242.67;96.10;;;;;;;;;;5002903;28;21083;-46
2023/09/09 02:42:26;;;;;;;243.83;100.90;;;;;;;;;;5002134;28;20438;-47
2023/09/09 02:44:52;;;;;;;244.40;100.50;;;;;;;;;;5003981;28;20430;-45
2023/09/09 02:47:19;;;;;;;242.67;96.83;;;;;;;;;;4997099;28;20870;-47
2023/09/09 02:49:45;;;;;;;244.73;99.23;;;;;;;;;;5004574;28;20460;-46
2023/09/09 02:52:11;;;;;;;240.80;93.07;;;;;;;;;;5001723;28;20439;-46
2023/09/09 02:54:38;;;;;;;240.57;95.00;;;;;;;;;;5004122;28;20410;-45
2023/09/09 02:57:05;;;;;;;243.40;98.53;;;;;;;;;;5001044;28;20506;-47
2023/09/09 02:59:33;;;;;;;242.20;93.60;;;;;;;;;;5003332;28;20506;-47
2023/09/09 03:01:58;;;;;;;243.00;95.60;;;;;;;;;;5000763;28;20956;-45
2023/09/09 03:04:25;;;;;;;241.43;94.53;;;;;;;;;;5001388;28;20450;-46
2023/09/09 03:06:50;;;;;;;239.20;92.80;;;;;;;;;;5004485;28;20466;-46
2023/09/09 03:09:17;;;;;;;243.57;96.60;;;;;;;;;;5000219;28;20825;-45
2023/09/09 03:11:43;;;;;;;249.17;102.60;;;;;;;;;;5001480;28;20410;-45
2023/09/09 03:14:09;;;;;;;243.90;97.73;;;;;;;;;;5000972;28;20428;-45
2023/09/09 03:16:35;;;;;;;242.93;96.20;;;;;;;;;;5001014;28;20900;-45
2023/09/09 03:19:01;;;;;;;241.83;95.87;;;;;;;;;;5000590;28;20533;-45
2023/09/09 03:21:27;;;;;;;246.00;98.23;;;;;;;;;;5006312;28;20907;-46
2023/09/09 03:23:53;;;;;;;244.93;97.13;;;;;;;;;;5003073;28;20427;-46
2023/09/09 03:26:19;;;;;;;246.43;100.80;;;;;;;;;;4998398;28;20467;-47
2023/09/09 03:28:46;;;;;;;241.67;93.83;;;;;;;;;;4999496;28;20446;-45
2023/09/09 03:31:12;;;;;;;248.67;100.23;;;;;;;;;;5001380;28;20485;-46
2023/09/09 03:33:39;;;;;;;248.23;102.33;;;;;;;;;;5003554;28;20422;-46
2023/09/09 03:36:05;;;;;;;242.40;94.63;;;;;;;;;;5001737;28;20413;-45
2023/09/09 03:38:31;;;;;;;243.67;97.90;;;;;;;;;;5004826;28;20451;-45
2023/09/09 03:40:57;;;;;;;241.70;92.03;;;;;;;;;;5001974;28;20456;-45
2023/09/09 03:43:23;;;;;;;240.30;91.03;;;;;;;;;;4989849;28;20483;-45
2023/09/09 03:45:54;;;;;;;245.87;100.60;;;;;;;;;;5004058;28;20486;-45
2023/09/09 03:48:20;;;;;;;240.47;91.67;;;;;;;;;;5000229;28;20424;-46
2023/09/09 03:50:46;;;;;;;243.43;98.03;;;;;;;;;;5002617;28;20438;-46
2023/09/09 03:53:12;;;;;;;241.33;92.53;;;;;;;;;;5000859;28;20861;-45
2023/09/09 03:55:38;;;;;;;240.77;94.40;;;;;;;;;;5002074;28;20412;-47
2023/09/09 03:58:03;;;;;;;239.30;91.60;;;;;;;;;;5004891;28;20496;-45
2023/09/09 04:00:29;;;;;;;242.67;98.30;;;;;;;;;;5004277;28;20416;-46
2023/09/09 04:02:55;;;;;;;242.27;94.77;;;;;;;;;;5008494;28;20492;-46
2023/09/09 04:05:22;;;;;;;242.30;92.77;;;;;;;;;;5002379;28;20930;-46
2023/09/09 04:07:48;;;;;;;239.93;92.77;;;;;;;;;;4993299;28;20419;-46
2023/09/09 04:10:14;;;;;;;242.57;94.80;;;;;;;;;;5003918;28;20410;-47
2023/09/09 04:12:40;;;;;;;238.30;89.83;;;;;;;;;;5003611;28;20513;-46
2023/09/09 04:15:07;;;;;;;241.23;94.53;;;;;;;;;;5006607;28;20479;-45
2023/09/09 04:17:33;;;;;;;241.53;92.93;;;;;;;;;;5001629;28;20489;-45
2023/09/09 04:19:59;;;;;;;242.30;97.30;;;;;;;;;;5007426;28;20906;-46
2023/09/09 04:22:26;;;;;;;241.50;94.27;;;;;;;;;;5001593;28;20436;-46
2023/09/09 04:24:55;;;;;;;242.27;95.90;;;;;;;;;;4997333;28;20812;-46
2023/09/09 04:27:21;;;;;;;242.83;93.97;;;;;;;;;;5005739;28;20494;-45
2023/09/09 04:29:47;;;;;;;241.03;90.93;;;;;;;;;;5007044;28;20407;-45
2023/09/09 04:32:13;;;;;;;243.60;94.23;;;;;;;;;;5004637;28;20430;-46
2023/09/09 04:34:39;;;;;;;242.93;95.50;;;;;;;;;;5006806;28;20416;-46
2023/09/09 04:37:05;;;;;;;242.27;93.33;;;;;;;;;;5006593;28;20410;-47
2023/09/09 04:39:31;;;;;;;241.57;94.63;;;;;;;;;;5000243;28;20444;-47
2023/09/09 04:41:57;;;;;;;245.77;96.17;;;;;;;;;;5006636;28;20518;-45
2023/09/09 04:44:23;;;;;;;243.23;93.77;;;;;;;;;;5004400;28;20430;-46
2023/09/09 04:46:49;;;;;;;241.67;92.13;;;;;;;;;;5005173;28;20458;-46
2023/09/09 04:49:17;;;;;;;240.53;91.20;;;;;;;;;;5004761;28;20738;-46
2023/09/09 04:51:43;;;;;;;249.20;100.13;;;;;;;;;;5004238;28;20423;-45
2023/09/09 04:54:09;;;;;;;242.13;94.30;;;;;;;;;;5004423;28;20441;-45
2023/09/09 04:56:35;;;;;;;242.63;92.43;;;;;;;;;;5003186;28;20423;-45
2023/09/09 04:59:01;;;;;;;240.37;91.47;;;;;;;;;;5008784;28;20414;-45
2023/09/09 05:01:27;;;;;;;243.70;94.03;;;;;;;;;;4999156;28;20577;-46
2023/09/09 05:03:53;;;;;;;244.07;97.13;;;;;;;;;;5002621;28;21009;-46
2023/09/09 05:06:19;;;;;;;243.73;96.87;;;;;;;;;;5004334;28;20463;-46
2023/09/09 05:08:46;;;;;;;240.27;91.43;;;;;;;;;;5002861;28;20493;-46
2023/09/09 05:11:12;;;;;;;238.60;87.63;;;;;;;;;;5003717;28;20473;-46
2023/09/09 05:13:38;;;;;;;234.37;90.83;;;;;;;;;;5008306;28;20435;-45
2023/09/09 05:16:04;;;;;;;230.67;89.03;;;;;;;;;;5007180;28;20851;-46
2023/09/09 05:18:30;;;;;;;232.80;93.97;;;;;;;;;;5000964;28;20422;-45
2023/09/09 05:20:56;;;;;;;231.53;91.23;;;;;;;;;;5000660;28;20478;-46
2023/09/09 05:23:22;;;;;;;233.20;90.83;;;;;;;;;;5004669;28;20959;-45
2023/09/09 05:25:48;;;;;;;235.77;95.03;;;;;;;;;;5005917;28;20461;-46
2023/09/09 05:28:14;;;;;;;231.67;90.77;;;;;;;;;;5003836;28;20409;-46
2023/09/09 05:30:40;;;;;;;232.77;94.67;;;;;;;;;;5005910;28;20415;-45
2023/09/09 05:33:06;;;;;;;232.20;90.00;;;;;;;;;;5005216;28;20431;-45
2023/09/09 05:35:32;;;;;;;232.60;94.30;;;;;;;;;;4999388;28;20418;-45
2023/09/09 05:37:58;;;;;;;233.07;89.50;;;;;;;;;;5005896;28;20411;-46
2023/09/09 05:40:24;;;;;;;232.60;94.63;;;;;;;;;;5003934;28;20458;-46
2023/09/09 05:42:50;;;;;;;236.47;95.03;;;;;;;;;;4993570;28;20473;-45
2023/09/09 05:45:16;;;;;;;233.50;90.23;;;;;;;;;;5003866;28;20501;-46
2023/09/09 05:47:44;;;;;;;232.33;91.80;;;;;;;;;;5003770;28;20415;-47
2023/09/09 05:50:11;;;;;;;236.53;96.10;;;;;;;;;;5003698;28;20979;-45
2023/09/09 05:52:37;;;;;;;234.67;91.67;;;;;;;;;;5001811;28;20446;-46
2023/09/09 05:55:03;;;;;;;232.87;89.93;;;;;;;;;;5008600;28;20417;-45
2023/09/09 05:57:32;;;;;;;238.53;97.17;;;;;;;;;;5001859;28;20838;-45
2023/09/09 05:59:58;;;;;;;236.17;98.47;;;;;;;;;;5001380;28;20409;-46
2023/09/09 06:02:24;;;;;;;236.00;92.83;;;;;;;;;;5003082;28;20469;-47
2023/09/09 06:04:50;;;;;;;233.10;94.07;;;;;;;;;;5001979;28;20404;-46
2023/09/09 06:07:16;;;;;;;230.97;89.27;;;;;;;;;;5003198;28;20974;-45
2023/09/09 06:09:42;;;;;;;233.57;91.83;;;;;;;;;;5006675;28;20411;-45
2023/09/09 06:12:08;;;;;;;236.53;92.53;;;;;;;;;;5006494;28;20438;-45
2023/09/09 06:14:34;;;;;;;232.07;88.97;;;;;;;;;;5000498;28;20418;-46
2023/09/09 06:17:00;;;;;;;236.57;93.20;;;;;;;;;;4999319;28;20415;-47
2023/09/09 06:19:25;;;;;;;234.40;91.30;;;;;;;;;;5003789;28;20433;-46
2023/09/09 06:21:51;;;;;;;239.17;98.53;;;;;;;;;;5004654;28;20487;-45
2023/09/09 06:24:17;;;;;;;235.07;92.33;;;;;;;;;;5003111;28;20426;-46
2023/09/09 06:26:43;;;;;;;238.37;95.53;;;;;;;;;;5004352;28;20498;-46
2023/09/09 06:29:09;;;;;;;236.07;92.17;;;;;;;;;;5004719;28;20902;-45
2023/09/09 06:31:35;;;;;;;244.77;100.70;;;;;;;;;;4998816;28;20450;-45
2023/09/09 06:34:01;;;;;;;237.87;93.43;;;;;;;;;;4997060;28;20858;-45
2023/09/09 06:36:27;;;;;;;235.47;92.40;;;;;;;;;;5004414;28;20813;-46
2023/09/09 06:38:53;;;;;;;235.67;93.43;;;;;;;;;;5003527;28;20442;-46
2023/09/09 06:41:19;;;;;;;236.80;93.33;;;;;;;;;;5003012;28;20404;-46
2023/09/09 06:43:46;;;;;;;237.90;95.23;;;;;;;;;;5001346;28;20447;-46
2023/09/09 06:46:12;;;;;;;234.00;91.27;;;;;;;;;;5002736;28;20509;-47
2023/09/09 06:48:38;;;;;;;236.10;94.67;;;;;;;;;;4997572;28;20446;-46
2023/09/09 06:51:04;;;;;;;234.63;90.77;;;;;;;;;;5004435;28;20458;-45
2023/09/09 06:53:30;;;;;;;235.40;93.63;;;;;;;;;;5000826;28;20934;-46
2023/09/09 06:55:56;;;;;;;235.07;95.53;;;;;;;;;;5000624;28;20419;-45
2023/09/09 06:58:22;;;;;;;238.63;97.00;;;;;;;;;;5002655;28;20412;-46
2023/09/09 07:00:54;;;;;;;239.60;97.07;;;;;;;;;;5001122;28;20964;-46
2023/09/09 07:03:20;;;;;;;234.43;92.87;;;;;;;;;;5000315;28;20443;-45
2023/09/09 07:05:46;;;;;;;244.13;107.00;;;;;;;;;;5000127;28;20469;-45
2023/09/09 07:08:12;;;;;;;245.83;110.40;;;;;;;;;;5005295;28;20494;-47
2023/09/09 07:10:38;;;;;;;237.93;101.70;;;;;;;;;;4999950;28;20492;-45
2023/09/09 07:13:04;;;;;;;238.27;102.83;;;;;;;;;;4997183;28;20803;-46
2023/09/09 07:15:30;;;;;;;236.67;101.70;;;;;;;;;;5000262;28;20916;-46
2023/09/09 07:17:56;;;;;;;240.70;107.17;;;;;;;;;;5000211;28;20400;-46
2023/09/09 07:20:22;;;;;;;240.63;109.37;;;;;;;;;;5002892;28;20781;-46
2023/09/09 07:22:48;;;;;;;241.37;108.77;;;;;;;;;;5003347;28;20431;-47
2023/09/09 07:25:14;;;;;;;241.53;114.80;;;;;;;;;;5004395;28;20418;-46
2023/09/09 07:27:40;;;;;;;244.17;114.37;;;;;;;;;;4999005;28;20485;-46
2023/09/09 07:30:07;;;;;;;241.03;112.13;;;;;;;;;;4995862;28;20414;-46
2023/09/09 07:32:33;;;;;;;240.00;114.20;;;;;;;;;;5003988;28;20453;-46
2023/09/09 07:35:02;;;;;;;245.23;118.63;;;;;;;;;;5000420;28;20959;-47
2023/09/09 07:37:28;;;;;;;244.07;117.70;;;;;;;;;;5003333;28;20843;-47
2023/09/09 07:39:54;;;;;;;237.73;116.73;;;;;;;;;;5000905;28;20735;-46
2023/09/09 07:42:20;;;;;;;243.00;121.37;;;;;;;;;;4998212;28;20935;-46
2023/09/09 07:44:46;;;;;;;240.47;121.10;;;;;;;;;;5003726;28;20450;-46
2023/09/09 07:47:12;;;;;;;242.10;121.90;;;;;;;;;;5001802;28;20467;-46
2023/09/09 07:49:38;;;;;;;247.07;130.50;;;;;;;;;;5001026;28;20419;-46
2023/09/09 07:52:04;;;;;;;241.80;127.60;;;;;;;;;;4998524;28;20424;-46
2023/09/09 07:54:31;;;;;;;241.53;130.93;;;;;;;;;;5001952;28;20438;-46
2023/09/09 07:56:58;;;;;;;238.20;122.07;;;;;;;;;;5000472;28;20790;-46
2023/09/09 07:59:25;;;;;;;239.63;124.00;;;;;;;;;;5000427;28;20473;-46
2023/09/09 08:01:51;;;;;;;240.47;127.40;;;;;;;;;;4999955;28;20420;-47
2023/09/09 08:04:16;;;;;;;239.77;125.50;;;;;;;;;;5005206;28;20430;-46
2023/09/09 08:06:42;;;;;;;237.77;124.10;;;;;;;;;;5000407;28;20461;-46
2023/09/09 08:09:08;;;;;;;237.17;127.37;;;;;;;;;;4993876;28;20423;-47
2023/09/09 08:11:34;;;;;;;246.10;135.50;;;;;;;;;;4991883;28;20412;-46
2023/09/09 08:14:00;;;;;;;240.43;132.10;;;;;;;;;;4991835;28;20420;-46
2023/09/09 08:16:26;;;;;;;239.43;130.53;;;;;;;;;;4991956;28;20434;-47
2023/09/09 08:18:52;;;;;;;240.27;133.87;;;;;;;;;;4991979;28;20459;-46
2023/09/09 08:21:18;;;;;;;240.23;130.13;;;;;;;;;;4991733;28;20426;-47
2023/09/09 08:23:44;;;;;;;237.03;131.07;;;;;;;;;;4991610;28;20538;-47
2023/09/09 08:26:12;;;;;;;240.27;135.03;;;;;;;;;;4991795;28;20474;-46
2023/09/09 08:28:37;;;;;;;240.63;133.87;;;;;;;;;;4991944;28;20813;-47
2023/09/09 08:31:04;;;;;;;241.47;136.77;;;;;;;;;;4991836;28;20436;-46
2023/09/09 08:33:29;;;;;;;240.83;139.93;;;;;;;;;;4991576;28;20834;-47
2023/09/09 08:35:59;;;;;;;236.97;133.23;;;;;;;;;;4991984;28;20451;-47
2023/09/09 08:38:25;;;;;;;237.70;134.17;;;;;;;;;;4991802;28;20479;-47
2023/09/09 08:41:11;;;;;;;239.10;136.57;;;;;;;;;;4991738;28;20433;-46
2023/09/09 08:43:56;;;;;;;239.13;139.90;;;;;;;;;;5000271;28;20406;-46
2023/09/09 08:46:22;;;;;;;237.77;139.03;;;;;;;;;;5008627;28;20455;-47
2023/09/09 08:48:52;;;;;;;238.47;141.00;;;;;;;;;;4996435;28;20897;-47
2023/09/09 08:51:19;;;;;;;238.83;135.37;;;;;;;;;;5005149;28;20462;-47
2023/09/09 08:53:46;;;;;;;237.00;141.57;;;;;;;;;;5001443;28;20439;-46
2023/09/09 08:56:13;;;;;;;234.60;137.47;;;;;;;;;;5003892;28;20874;-47
2023/09/09 08:58:40;;;;;;;235.67;140.47;;;;;;;;;;5006735;28;20411;-46
2023/09/09 09:01:06;;;;;;;237.40;144.60;;;;;;;;;;5003615;28;20393;-47
2023/09/09 09:03:35;;;;;;;237.13;143.53;;;;;;;;;;5006212;28;20406;-47
2023/09/09 09:06:05;;;;;;;238.20;144.47;;;;;;;;;;5004398;28;20455;-47
2023/09/09 09:08:32;;;;;;;238.70;144.87;;;;;;;;;;4991012;28;20390;-47
2023/09/09 09:10:58;;;;;;;237.57;145.33;;;;;;;;;;5006297;28;20437;-47
2023/09/09 09:13:24;;;;;;;238.53;146.73;;;;;;;;;;5003251;28;20467;-48
2023/09/09 09:15:50;;;;;;;239.13;146.73;;;;;;;;;;5003797;28;20986;-46
2023/09/09 09:18:17;;;;;;;240.83;150.00;;;;;;;;;;5004192;28;20475;-47
2023/09/09 09:20:43;;;;;;;240.77;148.83;;;;;;;;;;4998482;28;20441;-47
2023/09/09 09:23:13;;;;;;;240.27;151.50;;;;;;;;;;4995406;28;20522;-46
2023/09/09 09:25:45;;;;;;;239.60;152.63;;;;;;;;;;5008527;28;20449;-47
2023/09/09 09:28:15;;;;;;;240.27;155.37;;;;;;;;;;5008158;28;20443;-47
2023/09/09 09:30:41;;;;;;;237.33;152.13;;;;;;;;;;5003138;28;20406;-47
2023/09/09 09:33:07;;;;;;;237.37;148.83;;;;;;;;;;4999607;28;20432;-46
2023/09/09 09:35:36;;;;;;;237.93;152.97;;;;;;;;;;5003002;28;20404;-47
2023/09/09 09:38:06;;;;;;;240.87;154.73;;;;;;;;;;5002740;28;20444;-47
2023/09/09 09:40:32;;;;;;;240.03;153.57;;;;;;;;;;4994566;28;20436;-47
2023/09/09 09:42:58;;;;;;;243.00;155.80;;;;;;;;;;4999465;28;20495;-47
2023/09/09 09:45:27;;;;;;;242.10;155.37;;;;;;;;;;4999159;28;20419;-47
2023/09/09 09:47:53;;;;;;;243.23;160.30;;;;;;;;;;5000913;28;20924;-46
2023/09/09 09:50:22;;;;;;;242.03;158.63;;;;;;;;;;4997247;28;20382;-46
2023/09/09 09:52:49;;;;;;;244.17;162.87;;;;;;;;;;5003486;28;20452;-48
2023/09/09 09:55:18;;;;;;;243.10;163.53;;;;;;;;;;5001712;28;20404;-48
2023/09/09 09:57:47;;;;;;;246.53;164.13;;;;;;;;;;5003961;28;20410;-46
2023/09/09 10:00:15;;;;;;;238.87;155.77;;;;;;;;;;5002942;28;20792;-47
2023/09/09 10:02:41;;;;;;;240.07;159.10;;;;;;;;;;5002576;28;20424;-47
2023/09/09 10:05:08;;;;;;;244.80;168.53;;;;;;;;;;5002513;28;20419;-47
2023/09/09 10:07:36;;;;;;;241.00;163.77;;;;;;;;;;5001775;28;20988;-47
2023/09/09 10:10:09;;;;;;;242.93;165.63;;;;;;;;;;5007043;28;20393;-47
2023/09/09 10:12:37;;;;;;;239.30;158.73;;;;;;;;;;4993797;28;20427;-47
2023/09/09 10:15:05;;;;;;;240.57;157.33;;;;;;;;;;4999556;28;20431;-46
2023/09/09 10:17:32;;;;;;;238.57;156.60;;;;;;;;;;5002331;28;20374;-47
2023/09/09 10:19:58;;;;;;;239.57;156.53;;;;;;;;;;5001774;28;20415;-46
2023/09/09 10:22:25;;;;;;;243.17;165.17;;;;;;;;;;5003756;28;20817;-47
2023/09/09 10:24:52;;;;;;;242.80;164.87;;;;;;;;;;5004377;28;20439;-47
2023/09/09 10:27:19;;;;;;;244.40;167.03;;;;;;;;;;5005331;28;20798;-46
2023/09/09 10:29:46;;;;;;;242.73;166.33;;;;;;;;;;5001270;28;20486;-47
2023/09/09 10:32:12;;;;;;;241.20;162.77;;;;;;;;;;4997145;28;20950;-47
2023/09/09 10:34:41;;;;;;;242.33;164.30;;;;;;;;;;5004586;28;20832;-47
2023/09/09 10:37:09;;;;;;;244.20;166.67;;;;;;;;;;4999317;28;20759;-46
2023/09/09 10:39:35;;;;;;;244.07;167.27;;;;;;;;;;4993103;28;20404;-47
2023/09/09 10:42:04;;;;;;;244.57;170.80;;;;;;;;;;4992921;28;20436;-46
2023/09/09 10:44:30;;;;;;;242.90;168.23;;;;;;;;;;4993169;28;20465;-46
2023/09/09 10:46:57;;;;;;;244.37;168.00;;;;;;;;;;4992984;28;20532;-47
2023/09/09 10:49:27;;;;;;;245.43;170.23;;;;;;;;;;4993073;28;20760;-46
2023/09/09 10:51:53;;;;;;;245.10;167.87;;;;;;;;;;4992699;28;20465;-46
2023/09/09 10:54:20;;;;;;;244.77;173.53;;;;;;;;;;4992687;28;20526;-46
2023/09/09 10:56:47;;;;;;;247.10;176.57;;;;;;;;;;4992896;28;20474;-46
2023/09/09 10:59:16;;;;;;;242.87;167.00;;;;;;;;;;4992801;28;20954;-46
2023/09/09 11:01:42;;;;;;;250.93;177.37;;;;;;;;;;4992691;28;20401;-47
2023/09/09 11:04:22;;;;;;;245.87;174.30;;;;;;;;;;4992539;28;20410;-47
2023/09/09 11:07:07;;;;;;;245.90;175.63;;;;;;;;;;4992177;28;20462;-46
2023/09/09 11:09:33;;;;;;;245.07;175.97;;;;;;;;;;4992688;28;20783;-46
2023/09/09 11:11:59;;;;;;;244.93;172.37;;;;;;;;;;4992488;28;20395;-46
2023/09/09 11:14:32;;;;;;;243.20;172.00;;;;;;;;;;4992424;28;20449;-46
2023/09/09 11:16:58;;;;;;;245.40;177.40;;;;;;;;;;4992649;28;20994;-46
2023/09/09 11:19:24;;;;;;;248.63;181.87;;;;;;;;;;4992376;28;20499;-46
2023/09/09 11:21:51;;;;;;;246.93;178.10;;;;;;;;;;4992224;28;20400;-47
2023/09/09 11:24:17;;;;;;;246.27;177.60;;;;;;;;;;4992491;28;20924;-47
2023/09/09 11:26:47;;;;;;;241.50;167.23;;;;;;;;;;4992328;28;20513;-47
2023/09/09 11:29:13;;;;;;;243.20;168.73;;;;;;;;;;4992890;28;20397;-46
2023/09/09 11:31:39;;;;;;;246.17;172.40;;;;;;;;;;4991965;28;20503;-46
2023/09/09 11:34:05;;;;;;;244.83;171.27;;;;;;;;;;4992218;28;20967;-47
2023/09/09 11:36:32;;;;;;;246.03;167.43;;;;;;;;;;4992350;28;20419;-47
2023/09/09 11:38:59;;;;;;;246.90;173.17;;;;;;;;;;4992326;28;20451;-46
2023/09/09 11:41:26;;;;;;;249.70;178.70;;;;;;;;;;4992064;28;20416;-46
2023/09/09 11:44:03;;;;;;;243.93;171.17;;;;;;;;;;4992111;28;20428;-46
2023/09/09 11:46:31;;;;;;;248.70;178.07;;;;;;;;;;4972695;28;20460;-46
2023/09/09 11:48:57;;;;;;;247.73;180.53;;;;;;;;;;4989850;28;20427;-46
2023/09/09 11:51:23;;;;;;;248.23;180.10;;;;;;;;;;4992081;28;20412;-46
2023/09/09 11:53:49;;;;;;;246.13;180.60;;;;;;;;;;4992044;28;20795;-45
2023/09/09 11:56:18;;;;;;;245.60;170.70;;;;;;;;;;4992175;28;20419;-47
2023/09/09 11:58:44;;;;;;;246.70;176.90;;;;;;;;;;4991964;28;20511;-46
2023/09/09 12:01:10;;;;;;;247.90;179.73;;;;;;;;;;4992263;28;21002;-46
2023/09/09 12:03:36;;;;;;;250.47;186.60;;;;;;;;;;4991814;28;20838;-46
2023/09/09 12:06:03;;;;;;;250.57;185.37;;;;;;;;;;4992246;28;20551;-47
2023/09/09 12:08:30;;;;;;;249.97;184.90;;;;;;;;;;4992079;28;20438;-46
2023/09/09 12:10:57;;;;;;;246.83;182.53;;;;;;;;;;4992098;28;20498;-46
2023/09/09 12:13:23;;;;;;;249.23;183.00;;;;;;;;;;4991515;28;20443;-46
2023/09/09 12:15:49;;;;;;;245.87;179.27;;;;;;;;;;4991974;28;20793;-46
2023/09/09 12:18:15;;;;;;;247.13;184.17;;;;;;;;;;5003271;28;20788;-47
2023/09/09 12:21:00;;;;;;;247.93;183.23;;;;;;;;;;5005294;28;20411;-46
2023/09/09 12:23:27;;;;;;;248.90;183.37;;;;;;;;;;4994706;28;20802;-46
2023/09/09 12:25:53;;;;;;;247.27;181.10;;;;;;;;;;4995496;28;20473;-46
2023/09/09 12:28:19;;;;;;;246.20;183.13;;;;;;;;;;4995599;28;20420;-47
2023/09/09 12:30:45;;;;;;;246.97;180.60;;;;;;;;;;4995617;28;20498;-46
2023/09/09 12:33:15;;;;;;;246.77;180.13;;;;;;;;;;4995234;28;20526;-46
2023/09/09 12:35:45;;;;;;;246.73;179.27;;;;;;;;;;4995845;28;20427;-46
2023/09/09 12:38:11;;;;;;;248.63;189.80;;;;;;;;;;4995498;28;20518;-46
2023/09/09 12:40:54;;;;;;;247.37;181.73;;;;;;;;;;4995308;28;20412;-46
2023/09/09 12:43:24;;;;;;;246.63;181.03;;;;;;;;;;4995209;28;20440;-46
2023/09/09 12:45:54;;;;;;;245.60;176.40;;;;;;;;;;4995444;28;20447;-46
2023/09/09 12:48:21;;;;;;;244.90;177.37;;;;;;;;;;5005355;28;20832;-46
2023/09/09 12:50:48;;;;;;;247.47;178.53;;;;;;;;;;5003903;28;20427;-46
2023/09/09 12:53:14;;;;;;;245.00;180.30;;;;;;;;;;5004218;28;20436;-46
2023/09/09 12:55:40;;;;;;;248.93;183.53;;;;;;;;;;5003097;28;20408;-46
2023/09/09 12:58:06;;;;;;;245.77;181.97;;;;;;;;;;5009424;28;20411;-46
2023/09/09 13:00:32;;;;;;;245.60;180.40;;;;;;;;;;5003301;28;20438;-46
2023/09/09 13:02:58;;;;;;;246.80;182.10;;;;;;;;;;5001984;28;20432;-46
2023/09/09 13:05:24;;;;;;;247.20;182.00;;;;;;;;;;5004217;28;20492;-46
2023/09/09 13:07:50;;;;;;;247.10;184.00;;;;;;;;;;5003068;28;20943;-46
2023/09/09 13:10:16;;;;;;;244.90;177.60;;;;;;;;;;5004369;28;20426;-47
2023/09/09 13:12:42;;;;;;;246.43;179.90;;;;;;;;;;5007445;28;20458;-47
2023/09/09 13:15:08;;;;;;;247.87;182.77;;;;;;;;;;5007286;28;20519;-46
2023/09/09 13:17:34;;;;;;;247.50;179.00;;;;;;;;;;5001710;28;20407;-47
2023/09/09 13:20:00;;;;;;;246.70;176.77;;;;;;;;;;5000043;28;20416;-46
2023/09/09 13:22:27;;;;;;;247.73;177.10;;;;;;;;;;5005216;28;20497;-47
2023/09/09 13:24:53;;;;;;;248.47;176.50;;;;;;;;;;5008448;28;20415;-46
2023/09/09 13:27:19;;;;;;;248.17;175.87;;;;;;;;;;5004410;28;20455;-46
2023/09/09 13:29:45;;;;;;;247.47;173.50;;;;;;;;;;5010581;28;20953;-46
2023/09/09 13:32:11;;;;;;;247.63;172.33;;;;;;;;;;5004738;28;20422;-47
2023/09/09 13:34:37;;;;;;;248.20;173.00;;;;;;;;;;5000026;28;20523;-46
2023/09/09 13:37:03;;;;;;;246.23;173.10;;;;;;;;;;5005811;28;20411;-47
2023/09/09 13:39:28;;;;;;;245.30;172.07;;;;;;;;;;4999983;28;20419;-46
2023/09/09 13:41:54;;;;;;;247.50;174.73;;;;;;;;;;4993908;28;20400;-46
2023/09/09 13:44:22;;;;;;;246.37;169.20;;;;;;;;;;4994211;28;20432;-46
2023/09/09 13:46:48;;;;;;;245.33;167.23;;;;;;;;;;4994132;28;20553;-46
2023/09/09 13:49:14;;;;;;;246.07;165.50;;;;;;;;;;4993968;28;20464;-45
2023/09/09 13:51:40;;;;;;;250.97;169.33;;;;;;;;;;4993877;28;20412;-45
2023/09/09 13:54:06;;;;;;;247.70;167.27;;;;;;;;;;4993930;28;20428;-46
2023/09/09 13:56:32;;;;;;;248.20;168.43;;;;;;;;;;4993987;28;20459;-47